Main page
METAR-TAF:

METAR-TAF

Airports :

Córdoba Airport

Córdoba, Spain

latitude: 37-51N, longitude: 004-51W, elevation: 90 m

Current weather observation

The report was made 33 minutes ago, at 08:30 UTC
Wind 4 kt from the West, varying between South/Southwest and Northwest
Temperature 24°C
Humidity 54%
Pressure 1017 hPa
Visibility 10 km or more
no clouds below 1500 m and no cumulonimbus

METAR: LEBA 150830Z 26004KT 200V320 CAVOK 24/14 Q1017

Time: 11:03 (09:03 UTC)

Forecast

The report was made 1 hour and 3 minutes ago, at 08:00 UTC
Forecast valid from 15 at 09 UTC to 15 at 18 UTC
Wind 6 kt from the West
Visibility 10 km or more
no clouds below 1500 m and no cumulonimbus

TAF: LEBA 150800Z 1509/1518 26006KT CAVOK

Weather observations and forecasts of more than 4000 airports (METAR and TAF reports).

The available stations are represented by yellow and red dots on the map.

Hover mouse over dot to see the name of the station.

Then click to see weather observations and forecasts.

To change the map : click on the green buttons with a black cross to zoom in, on the green button with a dash to zoom out, or on the green arrows for adjacent maps.


METAR-TAF: